createdAt,value
2017-09-21T00:01:36.894Z,19.18
2017-09-21T00:04:03.127Z,19.16
2017-09-21T00:06:29.355Z,19.05
2017-09-21T00:08:55.640Z,19.01
2017-09-21T00:11:21.853Z,18.88
2017-09-21T00:13:48.065Z,18.78
2017-09-21T00:16:14.338Z,18.77
2017-09-21T00:18:40.680Z,18.82
2017-09-21T00:21:06.893Z,18.83
2017-09-21T00:23:33.176Z,19.03
2017-09-21T00:25:59.393Z,19.18
2017-09-21T00:28:25.602Z,19.08
2017-09-21T00:30:51.866Z,18.79
2017-09-21T00:33:18.085Z,18.84
2017-09-21T00:35:44.315Z,18.89
2017-09-21T00:38:10.557Z,18.96
2017-09-21T00:40:36.753Z,18.97
2017-09-21T00:43:02.971Z,18.84
2017-09-21T00:45:29.218Z,18.67
2017-09-21T00:47:55.442Z,18.56
2017-09-21T00:50:21.632Z,18.43
2017-09-21T00:52:47.877Z,18.31
2017-09-21T00:55:14.069Z,18.24
2017-09-21T00:57:40.263Z,18.18
2017-09-21T01:00:06.544Z,18.18
2017-09-21T01:02:32.756Z,18.06
2017-09-21T01:04:58.974Z,18.09
2017-09-21T01:07:25.230Z,17.94
2017-09-21T01:09:51.451Z,17.83
2017-09-21T01:12:17.648Z,17.78
2017-09-21T01:14:43.909Z,17.66
2017-09-21T01:17:10.123Z,17.60
2017-09-21T01:19:36.346Z,17.50
2017-09-21T01:22:02.609Z,17.42
2017-09-21T01:24:28.812Z,17.44
2017-09-21T01:26:55.017Z,17.35
2017-09-21T01:29:21.295Z,17.29
2017-09-21T01:31:47.505Z,17.37
2017-09-21T01:34:13.713Z,17.20
2017-09-21T01:36:39.991Z,17.20
2017-09-21T01:39:06.212Z,17.17
2017-09-21T01:41:32.452Z,17.31
2017-09-21T01:43:58.727Z,17.12
2017-09-21T01:46:24.955Z,17.16
2017-09-21T01:48:51.167Z,17.29
2017-09-21T01:51:17.435Z,17.27
2017-09-21T01:53:43.645Z,17.17
2017-09-21T01:56:09.857Z,17.15
2017-09-21T01:58:36.270Z,17.10
2017-09-21T02:01:02.477Z,17.12
2017-09-21T02:03:28.691Z,17.06
2017-09-21T02:05:54.963Z,16.98
2017-09-21T02:08:21.178Z,16.89
2017-09-21T02:10:47.387Z,16.80
2017-09-21T02:13:13.659Z,16.73
2017-09-21T02:15:39.886Z,16.68
2017-09-21T02:18:06.105Z,16.56
2017-09-21T02:20:32.388Z,16.53
2017-09-21T02:22:58.598Z,16.60
2017-09-21T02:25:24.809Z,16.56
2017-09-21T02:27:51.086Z,16.46
2017-09-21T02:30:17.304Z,16.30
2017-09-21T02:32:43.517Z,16.35
2017-09-21T02:35:09.780Z,16.44
2017-09-21T02:37:35.985Z,16.40
2017-09-21T02:40:02.428Z,16.26
2017-09-21T02:42:28.825Z,16.21
2017-09-21T02:44:55.050Z,16.14
2017-09-21T02:47:21.261Z,16.10
2017-09-21T02:49:47.541Z,16.17
2017-09-21T02:52:13.748Z,16.22
2017-09-21T02:54:39.954Z,16.16
2017-09-21T02:57:06.212Z,16.11
2017-09-21T02:59:32.412Z,16.11
2017-09-21T03:01:58.623Z,16.13
2017-09-21T03:04:24.873Z,16.00
2017-09-21T03:06:51.103Z,16.07
2017-09-21T03:09:17.330Z,16.00
2017-09-21T03:11:43.581Z,15.88
2017-09-21T03:14:09.975Z,15.85
2017-09-21T03:16:36.203Z,15.66
2017-09-21T03:19:02.473Z,15.48
2017-09-21T03:21:28.679Z,15.57
2017-09-21T03:23:54.889Z,15.49
2017-09-21T03:26:21.149Z,15.38
2017-09-21T03:28:47.368Z,15.58
2017-09-21T03:31:13.585Z,15.94
2017-09-21T03:33:39.874Z,15.84
2017-09-21T03:36:06.217Z,15.83
2017-09-21T03:38:32.494Z,15.62
2017-09-21T03:40:59.080Z,15.41
2017-09-21T03:43:25.475Z,15.35
2017-09-21T03:45:51.676Z,15.28
2017-09-21T03:48:17.924Z,15.48
2017-09-21T03:50:44.129Z,15.46
2017-09-21T03:53:10.352Z,15.47
2017-09-21T03:55:36.657Z,15.32
2017-09-21T03:58:02.867Z,15.40
2017-09-21T04:00:29.091Z,15.44
2017-09-21T04:02:55.355Z,15.39
2017-09-21T04:05:21.573Z,15.36
2017-09-21T04:07:47.803Z,15.31
2017-09-21T04:10:14.460Z,15.34
2017-09-21T04:12:40.950Z,15.21
2017-09-21T04:15:07.390Z,15.03
2017-09-21T04:17:33.740Z,15.30
2017-09-21T04:19:59.940Z,15.31
2017-09-21T04:22:26.161Z,15.37
2017-09-21T04:24:52.423Z,15.52
2017-09-21T04:27:18.665Z,15.43
2017-09-21T04:29:44.918Z,15.31
2017-09-21T04:32:11.184Z,15.23
2017-09-21T04:34:37.401Z,15.46
2017-09-21T04:37:03.612Z,15.35
2017-09-21T04:39:29.849Z,15.32
2017-09-21T04:41:56.089Z,15.39
2017-09-21T04:44:22.319Z,15.45
2017-09-21T04:46:48.610Z,15.49
2017-09-21T04:49:14.817Z,15.32
2017-09-21T04:51:41.085Z,15.36
2017-09-21T04:54:07.380Z,15.53
2017-09-21T04:56:33.620Z,15.75
2017-09-21T04:58:59.852Z,15.76
2017-09-21T05:01:26.096Z,15.74
2017-09-21T05:03:52.317Z,15.78
2017-09-21T05:06:18.545Z,15.99
2017-09-21T05:08:44.762Z,16.41
2017-09-21T05:11:11.194Z,17.13
2017-09-21T05:13:37.406Z,17.55
2017-09-21T05:16:03.649Z,17.50
2017-09-21T05:18:29.864Z,17.68
2017-09-21T05:20:56.092Z,19.22
2017-09-21T05:23:22.526Z,20.61
2017-09-21T05:25:48.763Z,22.02
2017-09-21T05:28:14.981Z,23.02
2017-09-21T05:30:41.214Z,23.85
2017-09-21T05:33:07.446Z,24.53
2017-09-21T05:35:33.663Z,25.21
2017-09-21T05:37:59.944Z,26.23
2017-09-21T05:40:26.152Z,26.81
2017-09-21T05:42:52.376Z,26.96
2017-09-21T05:45:18.638Z,26.24
2017-09-21T05:47:44.862Z,24.69
2017-09-21T05:50:11.087Z,23.70
2017-09-21T05:52:37.340Z,22.64
2017-09-21T05:55:03.562Z,21.55
2017-09-21T05:57:29.800Z,20.76
2017-09-21T05:59:56.065Z,20.16
2017-09-21T06:02:22.285Z,20.00
2017-09-21T06:04:48.508Z,20.34
2017-09-21T06:07:14.774Z,20.84
2017-09-21T06:09:41.008Z,22.00
2017-09-21T06:12:07.244Z,23.04
2017-09-21T06:14:33.548Z,25.03
2017-09-21T06:16:59.761Z,27.18
2017-09-21T06:19:25.989Z,28.04
2017-09-21T06:21:52.418Z,28.22
2017-09-21T06:24:18.771Z,28.45
2017-09-21T06:26:45.002Z,28.90
2017-09-21T06:29:11.280Z,28.42
2017-09-21T06:31:37.626Z,28.88
2017-09-21T06:34:03.857Z,29.08
2017-09-21T06:36:30.122Z,29.90
2017-09-21T06:38:56.360Z,30.18
2017-09-21T06:41:22.573Z,30.77
2017-09-21T06:43:48.824Z,30.50
2017-09-21T06:46:15.033Z,29.59
2017-09-21T06:48:41.242Z,29.43
2017-09-21T06:51:07.497Z,29.51
2017-09-21T06:53:33.706Z,29.05
2017-09-21T06:55:59.942Z,29.09
2017-09-21T06:58:26.218Z,28.77
2017-09-21T07:00:52.438Z,26.68
2017-09-21T07:03:18.663Z,27.60
2017-09-21T07:05:44.948Z,28.23
2017-09-21T07:08:11.166Z,28.62
2017-09-21T07:10:37.391Z,28.44
2017-09-21T07:13:03.673Z,26.93
2017-09-21T07:15:29.904Z,25.05
2017-09-21T07:17:56.118Z,25.24
2017-09-21T07:20:22.377Z,24.90
2017-09-21T07:22:48.600Z,24.60
2017-09-21T07:25:14.902Z,24.35
2017-09-21T07:27:41.170Z,23.64
2017-09-21T07:30:07.385Z,23.32
2017-09-21T07:32:33.592Z,22.84
2017-09-21T07:34:59.866Z,21.86
2017-09-21T07:37:26.086Z,21.86
2017-09-21T07:39:52.301Z,21.68
2017-09-21T07:42:18.584Z,21.35
2017-09-21T07:44:44.801Z,21.38
2017-09-21T07:47:11.032Z,21.07
2017-09-21T07:49:37.298Z,21.12
2017-09-21T07:52:03.527Z,20.94
2017-09-21T07:54:29.756Z,20.93
2017-09-21T07:56:56.043Z,21.26
2017-09-21T07:59:22.258Z,21.55
2017-09-21T08:01:48.468Z,21.35
2017-09-21T08:04:14.734Z,21.43
2017-09-21T08:06:40.947Z,21.60
2017-09-21T08:09:07.157Z,20.90
2017-09-21T08:11:33.429Z,20.92
2017-09-21T08:13:59.645Z,20.85
2017-09-21T08:16:25.873Z,20.67
2017-09-21T08:18:52.133Z,20.57
2017-09-21T08:21:18.349Z,20.59
2017-09-21T08:23:44.549Z,20.85
2017-09-21T08:26:10.809Z,20.86
2017-09-21T08:28:37.035Z,21.23
2017-09-21T08:31:03.250Z,21.60
2017-09-21T08:33:29.532Z,22.06
2017-09-21T08:35:55.755Z,22.12
2017-09-21T08:38:21.993Z,22.24
2017-09-21T08:40:48.260Z,22.27
2017-09-21T08:43:14.479Z,22.52
2017-09-21T08:45:40.704Z,22.08
2017-09-21T08:48:06.994Z,22.91
2017-09-21T08:50:33.203Z,23.91
2017-09-21T08:52:59.418Z,24.58
2017-09-21T08:55:25.713Z,24.60
2017-09-21T08:57:51.944Z,25.08
2017-09-21T09:00:18.165Z,24.60
2017-09-21T09:02:44.447Z,24.29
2017-09-21T09:05:10.675Z,24.13
2017-09-21T09:07:36.894Z,23.60
2017-09-21T09:10:03.173Z,23.82
2017-09-21T09:12:29.396Z,23.82
2017-09-21T09:14:55.613Z,24.79
2017-09-21T09:17:21.893Z,25.43
2017-09-21T09:19:48.131Z,26.44
2017-09-21T09:22:14.349Z,27.99
2017-09-21T09:24:40.588Z,28.81
2017-09-21T09:27:06.798Z,29.64
2017-09-21T09:29:32.998Z,30.16
2017-09-21T09:31:59.246Z,29.37
2017-09-21T09:34:25.450Z,30.05
2017-09-21T09:36:51.657Z,30.14
2017-09-21T09:39:17.852Z,31.48
2017-09-21T09:41:44.071Z,30.33
2017-09-21T09:44:10.294Z,29.19
2017-09-21T09:46:36.552Z,28.15
2017-09-21T09:49:02.872Z,28.27
2017-09-21T09:51:29.111Z,27.67
2017-09-21T09:53:55.352Z,27.60
2017-09-21T09:56:21.581Z,27.57
2017-09-21T09:58:47.802Z,26.85
2017-09-21T10:01:14.030Z,25.83
2017-09-21T10:03:40.247Z,25.36
2017-09-21T10:06:06.456Z,25.93
2017-09-21T10:08:32.691Z,27.05
2017-09-21T10:10:58.900Z,27.50
2017-09-21T10:13:25.134Z,28.17
2017-09-21T10:15:51.365Z,27.64
2017-09-21T10:18:17.577Z,27.94
2017-09-21T10:20:43.855Z,27.97
2017-09-21T10:23:10.078Z,27.83
2017-09-21T10:25:36.289Z,27.39
2017-09-21T10:28:02.558Z,28.51
2017-09-21T10:30:28.778Z,29.18
2017-09-21T10:32:54.990Z,30.24
2017-09-21T10:35:21.264Z,30.33
2017-09-21T10:37:47.487Z,29.19
2017-09-21T10:40:13.708Z,27.57
2017-09-21T10:42:39.974Z,27.15
2017-09-21T10:45:06.332Z,26.01
2017-09-21T10:47:32.555Z,24.83
2017-09-21T10:49:58.832Z,24.36
2017-09-21T10:52:25.046Z,25.97
2017-09-21T10:54:51.263Z,28.35
2017-09-21T10:57:17.547Z,29.87
2017-09-21T10:59:43.761Z,29.23
2017-09-21T11:02:09.974Z,28.36
2017-09-21T11:04:36.251Z,26.54
2017-09-21T11:07:02.459Z,26.55
2017-09-21T11:09:28.657Z,26.13
2017-09-21T11:11:54.910Z,25.94
2017-09-21T11:14:21.141Z,25.36
2017-09-21T11:16:47.379Z,25.35
2017-09-21T11:19:13.643Z,26.30
2017-09-21T11:21:39.855Z,28.93
2017-09-21T11:24:06.080Z,29.88
2017-09-21T11:26:32.346Z,31.23
2017-09-21T11:28:58.562Z,31.99
2017-09-21T11:31:24.884Z,30.58
2017-09-21T11:33:51.149Z,28.56
2017-09-21T11:36:17.367Z,28.71
2017-09-21T11:38:43.778Z,28.86
2017-09-21T11:41:10.058Z,27.58
2017-09-21T11:43:36.269Z,28.16
2017-09-21T11:46:02.498Z,27.64
2017-09-21T11:48:28.752Z,27.13
2017-09-21T11:50:54.963Z,26.98
2017-09-21T11:53:21.359Z,27.30
2017-09-21T11:55:47.663Z,27.15
2017-09-21T11:58:13.883Z,27.56
2017-09-21T12:00:40.115Z,27.01
2017-09-21T12:03:06.394Z,26.60
2017-09-21T12:05:32.624Z,25.90
2017-09-21T12:07:58.832Z,25.60
2017-09-21T12:10:25.140Z,25.36
2017-09-21T12:12:51.390Z,24.96
2017-09-21T12:15:17.617Z,24.81
2017-09-21T12:17:43.908Z,24.62
2017-09-21T12:20:10.256Z,24.41
2017-09-21T12:22:36.464Z,24.00
2017-09-21T12:25:02.775Z,23.63
2017-09-21T12:27:29.044Z,23.95
2017-09-21T12:29:55.284Z,23.27
2017-09-21T12:32:21.597Z,23.37
2017-09-21T12:34:47.800Z,23.44
2017-09-21T12:37:14.015Z,23.99
2017-09-21T12:39:40.306Z,25.09
2017-09-21T12:42:06.531Z,25.08
2017-09-21T12:44:32.775Z,24.90
2017-09-21T12:46:59.049Z,24.78
2017-09-21T12:49:25.284Z,24.14
2017-09-21T12:51:51.528Z,23.88
2017-09-21T12:54:17.930Z,23.73
2017-09-21T12:56:44.147Z,23.70
2017-09-21T12:59:10.436Z,23.22
2017-09-21T13:01:37.546Z,23.07
2017-09-21T13:04:03.767Z,22.80
2017-09-21T13:06:30.007Z,23.17
2017-09-21T13:08:56.281Z,23.47
2017-09-21T13:11:22.509Z,23.58
2017-09-21T13:13:48.721Z,23.46
2017-09-21T13:16:14.976Z,23.90
2017-09-21T13:18:41.205Z,24.40
2017-09-21T13:21:07.441Z,24.17
2017-09-21T13:23:33.756Z,24.11
2017-09-21T13:25:59.981Z,23.74
2017-09-21T13:28:26.204Z,23.87
2017-09-21T13:30:52.504Z,23.62
2017-09-21T13:33:18.714Z,23.71
2017-09-21T13:35:44.948Z,23.52
2017-09-21T13:38:11.217Z,23.62
2017-09-21T13:40:37.519Z,23.61
2017-09-21T13:43:03.729Z,23.40
2017-09-21T13:45:30.015Z,23.16
2017-09-21T13:47:56.235Z,22.98
2017-09-21T13:50:22.475Z,23.20
2017-09-21T13:52:48.758Z,23.19
2017-09-21T13:55:15.017Z,23.10
2017-09-21T13:57:41.251Z,23.14
2017-09-21T14:00:07.521Z,23.40
2017-09-21T14:02:33.726Z,23.20
2017-09-21T14:04:59.942Z,23.43
2017-09-21T14:07:26.226Z,23.56
2017-09-21T14:09:52.437Z,23.31
2017-09-21T14:12:18.645Z,23.08
2017-09-21T14:14:44.935Z,23.03
2017-09-21T14:17:11.277Z,23.16
2017-09-21T14:19:37.489Z,22.98
2017-09-21T14:22:03.781Z,22.65
2017-09-21T14:24:29.986Z,22.76
2017-09-21T14:26:56.183Z,22.75
2017-09-21T14:29:22.445Z,22.72
2017-09-21T14:31:48.663Z,22.52
2017-09-21T14:34:14.889Z,22.60
2017-09-21T14:36:41.161Z,22.59
2017-09-21T14:39:07.424Z,22.65
2017-09-21T14:41:33.654Z,22.56
2017-09-21T14:43:59.936Z,22.52
2017-09-21T14:46:26.168Z,22.44
2017-09-21T14:48:52.576Z,22.49
2017-09-21T14:51:18.875Z,22.40
2017-09-21T14:53:45.111Z,22.04
2017-09-21T14:56:11.333Z,21.87
2017-09-21T14:58:37.670Z,21.75
2017-09-21T15:01:03.886Z,21.83
2017-09-21T15:03:30.114Z,21.81
2017-09-21T15:05:56.421Z,21.78
2017-09-21T15:08:22.649Z,21.63
2017-09-21T15:10:48.894Z,21.58
2017-09-21T15:13:15.171Z,21.48
2017-09-21T15:15:41.466Z,21.55
2017-09-21T15:18:07.674Z,21.48
2017-09-21T15:20:33.942Z,21.40
2017-09-21T15:23:00.149Z,21.37
2017-09-21T15:25:26.390Z,21.41
2017-09-21T15:27:52.678Z,21.24
2017-09-21T15:30:18.903Z,21.14
2017-09-21T15:32:45.284Z,20.90
2017-09-21T15:35:11.624Z,20.44
2017-09-21T15:37:37.856Z,19.89
2017-09-21T15:40:04.071Z,19.15
2017-09-21T15:42:30.310Z,18.71
2017-09-21T15:44:56.644Z,18.50
2017-09-21T15:47:22.874Z,18.32
2017-09-21T15:49:49.137Z,18.30
2017-09-21T15:52:15.339Z,18.22
2017-09-21T15:54:41.536Z,18.08
2017-09-21T15:57:07.782Z,18.00
2017-09-21T15:59:33.969Z,18.02
2017-09-21T16:02:00.177Z,18.08
2017-09-21T16:04:26.427Z,17.95
2017-09-21T16:06:52.651Z,18.04
2017-09-21T16:09:18.866Z,17.82
2017-09-21T16:11:45.141Z,17.72
2017-09-21T16:14:11.342Z,17.57
2017-09-21T16:16:37.552Z,17.51
2017-09-21T16:19:03.827Z,17.35
2017-09-21T16:21:30.037Z,17.25
2017-09-21T16:23:56.238Z,17.20
2017-09-21T16:26:22.506Z,17.46
2017-09-21T16:28:48.723Z,17.57
2017-09-21T16:31:14.938Z,17.38
2017-09-21T16:33:41.187Z,17.31
2017-09-21T16:36:07.399Z,17.53
2017-09-21T16:38:33.620Z,17.79
2017-09-21T16:40:59.888Z,17.86
2017-09-21T16:43:26.086Z,17.59
2017-09-21T16:45:52.293Z,17.64
2017-09-21T16:48:18.565Z,17.47
2017-09-21T16:50:44.777Z,17.40
2017-09-21T16:53:10.975Z,17.44
2017-09-21T16:55:37.228Z,17.58
2017-09-21T16:58:03.416Z,17.39
2017-09-21T17:00:29.627Z,17.36
2017-09-21T17:02:55.904Z,17.23
2017-09-21T17:05:22.106Z,17.23
2017-09-21T17:07:48.332Z,17.38
2017-09-21T17:10:14.585Z,17.49
2017-09-21T17:12:40.776Z,17.54
2017-09-21T17:15:06.975Z,17.39
2017-09-21T17:17:33.255Z,17.27
2017-09-21T17:19:59.452Z,17.33
2017-09-21T17:22:25.662Z,17.38
2017-09-21T17:24:51.924Z,17.27
2017-09-21T17:27:18.127Z,17.31
2017-09-21T17:29:44.330Z,17.54
2017-09-21T17:32:10.618Z,17.35
2017-09-21T17:34:36.803Z,17.16
2017-09-21T17:37:03.004Z,17.12
2017-09-21T17:39:29.285Z,17.18
2017-09-21T17:41:55.492Z,17.25
2017-09-21T17:44:21.690Z,17.22
2017-09-21T17:46:47.960Z,17.17
2017-09-21T17:49:14.168Z,17.12
2017-09-21T17:51:40.369Z,17.03
2017-09-21T17:54:06.608Z,17.09
2017-09-21T17:56:32.804Z,17.08
2017-09-21T17:58:58.992Z,17.09
2017-09-21T18:01:25.260Z,17.16
2017-09-21T18:03:51.481Z,17.28
2017-09-21T18:06:17.703Z,17.50
2017-09-21T18:08:43.963Z,17.54
2017-09-21T18:11:10.164Z,17.58
2017-09-21T18:13:36.382Z,17.52
2017-09-21T18:16:02.764Z,17.53
2017-09-21T18:18:28.994Z,17.65
2017-09-21T18:20:55.334Z,17.77
2017-09-21T18:23:21.598Z,17.76
2017-09-21T18:25:47.809Z,17.78
2017-09-21T18:28:14.017Z,17.85
2017-09-21T18:30:40.463Z,17.77
2017-09-21T18:33:06.664Z,17.75
2017-09-21T18:35:32.878Z,17.69
2017-09-21T18:37:59.132Z,17.55
2017-09-21T18:40:25.422Z,17.48
2017-09-21T18:42:51.733Z,17.55
2017-09-21T18:45:18.016Z,17.57
2017-09-21T18:47:44.258Z,17.69
2017-09-21T18:50:10.461Z,17.78
2017-09-21T18:52:36.722Z,17.75
2017-09-21T18:55:02.939Z,17.58
2017-09-21T18:57:29.141Z,17.37
2017-09-21T18:59:55.428Z,17.33
2017-09-21T19:02:21.668Z,17.34
2017-09-21T19:04:47.885Z,17.16
2017-09-21T19:07:14.147Z,17.21
2017-09-21T19:09:40.364Z,17.22
2017-09-21T19:12:06.572Z,17.17
2017-09-21T19:14:32.871Z,17.37
2017-09-21T19:16:59.079Z,17.26
2017-09-21T19:19:25.277Z,17.30
2017-09-21T19:21:51.557Z,17.42
2017-09-21T19:24:17.753Z,17.66
2017-09-21T19:26:43.954Z,17.67
2017-09-21T19:29:10.196Z,17.55
2017-09-21T19:31:36.404Z,17.52
2017-09-21T19:34:02.600Z,17.60
2017-09-21T19:36:28.896Z,17.51
2017-09-21T19:38:55.098Z,17.37
2017-09-21T19:41:21.313Z,17.18
2017-09-21T19:43:47.550Z,16.97
2017-09-21T19:46:13.768Z,17.00
2017-09-21T19:48:39.966Z,17.13
2017-09-21T19:51:06.240Z,16.96
2017-09-21T19:53:32.469Z,16.78
2017-09-21T19:55:58.658Z,16.81
2017-09-21T19:58:24.921Z,16.88
2017-09-21T20:00:51.120Z,16.91
2017-09-21T20:03:17.329Z,17.00
2017-09-21T20:05:43.612Z,16.76
2017-09-21T20:08:09.844Z,16.83
2017-09-21T20:10:36.039Z,16.85
2017-09-21T20:13:02.290Z,16.70
2017-09-21T20:15:28.572Z,16.67
2017-09-21T20:17:54.780Z,16.70
2017-09-21T20:20:21.033Z,16.74
2017-09-21T20:22:47.238Z,16.94
2017-09-21T20:25:13.447Z,17.03
2017-09-21T20:27:39.697Z,17.19
2017-09-21T20:30:05.884Z,17.30
2017-09-21T20:32:32.128Z,17.23
2017-09-21T20:34:58.410Z,17.10
2017-09-21T20:37:24.650Z,17.13
2017-09-21T20:39:50.851Z,17.00
2017-09-21T20:42:17.119Z,16.91
2017-09-21T20:44:43.309Z,16.77
2017-09-21T20:47:09.524Z,16.85
2017-09-21T20:49:35.789Z,16.86
2017-09-21T20:52:01.992Z,16.72
2017-09-21T20:54:28.208Z,16.62
2017-09-21T20:56:54.518Z,16.63
2017-09-21T20:59:20.731Z,16.83
2017-09-21T21:01:46.946Z,16.75
2017-09-21T21:04:13.214Z,16.61
2017-09-21T21:06:39.424Z,16.66
2017-09-21T21:09:05.617Z,16.80
2017-09-21T21:11:31.962Z,16.56
2017-09-21T21:13:58.192Z,16.67
2017-09-21T21:16:24.402Z,16.58
2017-09-21T21:18:50.672Z,16.62
2017-09-21T21:21:16.887Z,16.69
2017-09-21T21:23:43.091Z,16.55
2017-09-21T21:26:09.348Z,16.35
2017-09-21T21:28:35.579Z,16.35
2017-09-21T21:31:01.769Z,16.34
2017-09-21T21:33:28.066Z,16.16
2017-09-21T21:35:54.279Z,16.14
2017-09-21T21:38:20.485Z,16.19
2017-09-21T21:40:46.740Z,16.13
2017-09-21T21:43:12.953Z,16.12
2017-09-21T21:45:39.143Z,15.89
2017-09-21T21:48:05.447Z,15.77
2017-09-21T21:50:31.639Z,15.94
2017-09-21T21:52:57.842Z,15.98
2017-09-21T21:55:24.095Z,15.99
2017-09-21T21:57:50.287Z,15.86
2017-09-21T22:00:16.483Z,15.73
2017-09-21T22:02:42.733Z,15.72
2017-09-21T22:05:08.927Z,15.74
2017-09-21T22:07:35.267Z,15.60
2017-09-21T22:10:01.529Z,15.50
2017-09-21T22:12:27.878Z,15.57
2017-09-21T22:14:54.068Z,15.88
2017-09-21T22:17:20.322Z,15.90
2017-09-21T22:19:46.527Z,15.71
2017-09-21T22:22:12.740Z,15.64
2017-09-21T22:24:39.027Z,15.43
2017-09-21T22:27:05.441Z,15.52
2017-09-21T22:29:31.714Z,15.57
2017-09-21T22:31:58.130Z,15.52
2017-09-21T22:34:24.516Z,15.48
2017-09-21T22:36:50.960Z,15.39
2017-09-21T22:39:17.218Z,15.11
2017-09-21T22:41:43.468Z,15.07
2017-09-21T22:44:10.085Z,14.99
2017-09-21T22:46:36.526Z,14.93
2017-09-21T22:49:02.761Z,14.92
2017-09-21T22:51:29.381Z,14.96
2017-09-21T22:53:55.835Z,15.25
2017-09-21T22:56:22.071Z,15.30
2017-09-21T22:58:48.291Z,15.07
2017-09-21T23:01:14.722Z,15.01
2017-09-21T23:03:41.096Z,15.03
2017-09-21T23:06:07.385Z,15.25
2017-09-21T23:08:33.813Z,15.41
2017-09-21T23:11:00.097Z,15.20
2017-09-21T23:13:26.693Z,15.02
2017-09-21T23:15:53.307Z,14.79
2017-09-21T23:18:19.692Z,14.71
2017-09-21T23:20:46.139Z,14.78
2017-09-21T23:23:12.410Z,15.07
2017-09-21T23:25:38.818Z,15.08
2017-09-21T23:28:05.241Z,15.04
2017-09-21T23:30:31.682Z,15.13
2017-09-21T23:32:58.121Z,14.92
2017-09-21T23:35:24.393Z,15.05
2017-09-21T23:37:51.026Z,15.03
2017-09-21T23:40:17.452Z,14.97
2017-09-21T23:42:43.690Z,14.95
2017-09-21T23:45:10.311Z,15.02
2017-09-21T23:47:36.726Z,15.02
2017-09-21T23:50:02.986Z,14.98
2017-09-21T23:52:29.426Z,15.08
2017-09-21T23:54:56.027Z,14.93
2017-09-21T23:57:22.284Z,14.84
2017-09-21T23:59:48.517Z,14.91
